Time;durP1;ratioP1;P1;durP2;ratioP2;P2;SDS_P1;SDS_P2;PMS_P1;PMS_P2;Temp;Humidity;BMP_temperature;BMP_pressure;BME280_temperature;BME280_humidity;BME280_pressure;Samples;Min_cycle;Max_cycle;Signal;HPM_P1;HPM_P2
2023/06/09 00:01:25;;;;;;;;;29.00;27.67;;;;;24.42;50.66;100247.88;6104400;23;45825;-81
2023/06/09 00:03:53;;;;;;;;;33.00;30.33;;;;;24.39;50.34;100245.28;6105292;23;45370;-81
2023/06/09 00:06:22;;;;;;;;;32.00;28.67;;;;;24.30;51.50;100238.50;6130506;23;45392;-80
2023/06/09 00:08:51;;;;;;;;;29.00;28.33;;;;;24.32;51.18;100243.88;6131751;23;48182;-81
2023/06/09 00:11:18;;;;;;;;;30.33;30.00;;;;;24.21;51.43;100244.38;6132090;23;45950;-81
2023/06/09 00:13:46;;;;;;;;;31.67;30.00;;;;;24.13;51.17;100236.63;6133518;23;45450;-80
2023/06/09 00:16:13;;;;;;;;;32.00;30.00;;;;;24.15;50.90;100229.25;6108876;23;45392;-81
2023/06/09 00:18:40;;;;;;;;;28.00;28.00;;;;;24.10;51.67;100236.78;6106587;23;45335;-80
2023/06/09 00:21:06;;;;;;;;;29.67;28.67;;;;;24.05;51.10;100233.41;6131519;23;45400;-80
2023/06/09 00:23:34;;;;;;;;;33.67;30.00;;;;;24.14;51.20;100235.66;6139912;22;45435;-81
2023/06/09 00:26:00;;;;;;;;;30.67;29.00;;;;;24.06;51.19;100240.63;6225416;22;45588;-79
2023/06/09 00:28:25;;;;;;;;;32.67;31.00;;;;;24.04;51.63;100239.81;6220264;22;46609;-82
2023/06/09 00:30:51;;;;;;;;;29.00;27.33;;;;;23.97;51.70;100235.63;6224029;22;45308;-80
2023/06/09 00:33:30;;;;;;;;;29.67;29.00;;;;;24.02;51.62;100243.56;6220641;22;45026;-80
2023/06/09 00:36:08;;;;;;;;;28.00;26.33;;;;;23.99;51.81;100239.16;6220235;22;45381;-79
2023/06/09 00:39:02;;;;;;;;;31.00;29.00;;;;;23.96;51.88;100234.75;6226057;22;46134;-79
2023/06/09 00:48:19;;;;;;;;;32.00;30.00;;;;;23.84;52.03;100194.63;6157951;23;46078;-81
2023/06/09 00:50:45;;;;;;;;;34.00;30.33;;;;;23.74;52.62;100213.16;6189329;23;47893;-80
2023/06/09 00:53:11;;;;;;;;;30.67;29.00;;;;;23.73;52.87;100214.16;6190949;23;45438;-80
2023/06/09 00:55:39;;;;;;;;;30.00;27.00;;;;;23.70;52.94;100217.00;6166765;23;45372;-81
2023/06/09 00:58:07;;;;;;;;;28.33;28.33;;;;;23.74;52.87;100205.03;6192327;23;45381;-81
2023/06/09 01:00:35;;;;;;;;;28.67;28.00;;;;;23.66;52.70;100223.53;6190096;23;45546;-81
2023/06/09 01:03:01;;;;;;;;;29.67;29.67;;;;;23.63;52.77;100210.13;6163927;23;45329;-81
2023/06/09 01:05:38;;;;;;;;;29.00;29.00;;;;;23.65;52.98;100210.91;6189408;23;45261;-82
2023/06/09 01:08:24;;;;;;;;;31.67;30.00;;;;;23.67;53.02;100192.72;6190087;23;45552;-82
2023/06/09 01:11:07;;;;;;;;;27.67;26.67;;;;;23.65;53.39;100207.31;6165390;23;47266;-81
2023/06/09 01:13:59;;;;;;;;;31.00;29.67;;;;;23.66;53.31;100188.22;6163914;23;45369;-80
2023/06/09 01:16:52;;;;;;;;;32.33;30.00;;;;;23.61;53.06;100198.41;6189808;22;45534;-80
2023/06/09 01:19:34;;;;;;;;;28.33;28.33;;;;;23.81;52.59;100196.59;6190130;22;44956;-81
2023/06/09 01:22:06;;;;;;;;;32.67;31.00;;;;;23.79;53.15;100195.81;6201557;22;45444;-80
2023/06/09 01:24:32;;;;;;;;;32.67;30.67;;;;;23.63;54.13;100199.25;6220912;22;45320;-80
2023/06/09 01:27:01;;;;;;;;;29.33;27.67;;;;;23.64;53.25;100186.56;6221634;22;45303;-81
2023/06/09 01:29:30;;;;;;;;;29.67;29.33;;;;;23.61;53.60;100190.28;6195754;22;45244;-81
2023/06/09 01:31:56;;;;;;;;;26.00;25.33;;;;;23.51;53.68;100189.88;6195477;22;48011;-81
2023/06/09 01:34:22;;;;;;;;;33.67;31.67;;;;;23.47;53.44;100176.50;6222498;22;45152;-80
2023/06/09 01:36:51;;;;;;;;;30.33;28.33;;;;;23.29;54.93;100179.16;6222899;22;45357;-81
2023/06/09 01:39:17;;;;;;;;;34.00;32.00;;;;;23.18;54.74;100181.50;6212578;22;45488;-81
2023/06/09 01:41:45;;;;;;;;;27.00;26.67;;;;;23.13;54.48;100173.59;6225722;22;46943;-80
2023/06/09 01:44:11;;;;;;;;;33.67;29.67;;;;;23.10;54.35;100175.56;6252215;22;45696;-80
2023/06/09 01:46:37;;;;;;;;;30.67;30.33;;;;;23.06;54.60;100176.66;6252197;22;45358;-80
2023/06/09 01:49:18;;;;;;;;;24.67;23.00;;;;;23.13;54.96;100181.72;6253060;22;45354;-80
2023/06/09 01:51:50;;;;;;;;;32.67;30.00;;;;;23.11;54.74;100190.88;6252882;22;45265;-80
2023/06/09 01:54:23;;;;;;;;;30.33;29.67;;;;;23.10;54.98;100183.69;6251060;22;45330;-80
2023/06/09 01:57:06;;;;;;;;;25.67;25.67;;;;;23.06;55.40;100179.34;6253813;22;45474;-81
2023/06/09 01:59:41;;;;;;;;;33.00;28.67;;;;;23.04;55.13;100173.13;6252462;22;45507;-79
2023/06/09 02:02:09;;;;;;;;;28.00;28.00;;;;;22.99;55.54;100180.59;6253526;22;45298;-81
2023/06/09 02:04:35;;;;;;;;;29.33;29.00;;;;;22.91;55.46;100173.66;6253133;22;45397;-81
2023/06/09 02:07:05;;;;;;;;;29.00;28.33;;;;;22.91;55.53;100175.50;6251941;22;45334;-82
2023/06/09 02:09:32;;;;;;;;;30.33;29.00;;;;;22.89;55.88;100181.00;6253913;22;45279;-82
2023/06/09 02:11:59;;;;;;;;;30.33;29.00;;;;;22.84;55.65;100177.59;6252126;22;45363;-82
2023/06/09 02:14:32;;;;;;;;;29.33;29.00;;;;;22.89;55.79;100177.41;6253734;22;45339;-82
2023/06/09 02:16:58;;;;;;;;;27.00;27.00;;;;;22.74;55.81;100168.13;6253179;22;45274;-81
2023/06/09 02:19:26;;;;;;;;;33.33;30.33;;;;;22.75;56.05;100167.19;6224904;22;45473;-81
2023/06/09 02:21:51;;;;;;;;;28.00;28.00;;;;;22.72;56.29;100164.59;6253498;22;45018;-81
2023/06/09 02:24:17;;;;;;;;;32.67;30.00;;;;;22.70;55.99;100174.63;6251242;22;45438;-80
2023/06/09 02:30:06;;;;;;;;;29.33;29.33;;;;;22.67;56.73;100163.94;6251790;22;45394;-81
2023/06/09 02:32:32;;;;;;;;;22.67;22.67;;;;;22.63;56.73;100167.75;6251883;22;45405;-81
2023/06/09 02:34:57;;;;;;;;;31.00;30.00;;;;;22.61;56.65;100156.09;6252651;22;44892;-80
2023/06/09 02:37:23;;;;;;;;;28.67;28.00;;;;;22.59;56.15;100155.28;6255259;22;45350;-81
2023/06/09 02:39:49;;;;;;;;;31.33;30.00;;;;;22.57;57.04;100158.94;6231502;22;45312;-80
2023/06/09 02:42:14;;;;;;;;;30.67;29.67;;;;;22.49;56.34;100146.69;6194912;22;45408;-80
2023/06/09 02:44:41;;;;;;;;;26.00;26.00;;;;;22.50;56.61;100152.03;6221978;22;45526;-80
2023/06/09 02:47:06;;;;;;;;;30.00;29.67;;;;;22.48;56.75;100158.47;6219491;22;45328;-81
2023/06/09 02:49:34;;;;;;;;;25.67;25.67;;;;;22.47;57.51;100149.44;6196467;22;45353;-80
2023/06/09 02:51:59;;;;;;;;;28.33;27.33;;;;;22.35;56.91;100139.16;6220205;22;48057;-80
2023/06/09 02:54:25;;;;;;;;;27.67;26.67;;;;;22.36;57.44;100155.34;6222243;22;45379;-80
2023/06/09 02:56:51;;;;;;;;;32.00;29.67;;;;;22.32;57.79;100147.44;6195888;22;45368;-80
2023/06/09 02:59:17;;;;;;;;;26.00;24.67;;;;;22.33;57.41;100149.19;6222786;22;45406;-81
2023/06/09 03:01:44;;;;;;;;;34.00;29.33;;;;;22.35;57.88;100141.88;6169787;22;46031;-81
2023/06/09 03:04:11;;;;;;;;;29.33;29.33;;;;;22.29;57.66;100153.84;6195839;22;45395;-80
2023/06/09 03:06:37;;;;;;;;;29.00;28.33;;;;;22.22;58.49;100140.59;6221572;22;45336;-80
2023/06/09 03:09:03;;;;;;;;;30.67;30.33;;;;;22.22;57.92;100146.94;6219455;22;45534;-81
2023/06/09 03:11:29;;;;;;;;;30.67;28.33;;;;;22.16;58.00;100142.66;6220451;22;46915;-81
2023/06/09 03:13:55;;;;;;;;;28.67;28.00;;;;;22.18;57.79;100151.59;6222841;22;45365;-81
2023/06/09 03:16:21;;;;;;;;;31.67;30.00;;;;;22.17;57.84;100144.41;6221741;22;45915;-81
2023/06/09 03:18:47;;;;;;;;;24.33;23.33;;;;;22.14;58.18;100144.53;6224512;22;45373;-81
2023/06/09 03:21:13;;;;;;;;;32.67;30.33;;;;;22.19;57.90;100155.19;6220776;22;46698;-80
2023/06/09 03:23:40;;;;;;;;;28.67;27.33;;;;;22.13;58.44;100148.19;6221587;22;45767;-80
2023/06/09 03:26:11;;;;;;;;;31.33;30.33;;;;;22.16;58.28;100153.50;6197053;22;45396;-80
2023/06/09 03:28:36;;;;;;;;;30.00;30.00;;;;;22.05;58.11;100147.63;6196299;22;45424;-79
2023/06/09 03:31:02;;;;;;;;;31.33;29.00;;;;;22.05;59.04;100155.75;6219195;22;47224;-79
2023/06/09 03:33:27;;;;;;;;;33.33;30.33;;;;;21.95;59.06;100141.72;6221705;22;45343;-81
2023/06/09 03:35:53;;;;;;;;;32.33;30.33;;;;;22.01;59.28;100146.00;6222813;22;45774;-81
2023/06/09 03:38:18;;;;;;;;;30.67;28.00;;;;;21.97;58.62;100142.53;6223241;22;45373;-81
2023/06/09 03:40:44;;;;;;;;;26.67;26.67;;;;;22.01;59.02;100150.56;6221638;22;47151;-81
2023/06/09 03:43:11;;;;;;;;;28.67;28.67;;;;;22.02;58.63;100150.50;6223540;22;45329;-81
2023/06/09 03:45:36;;;;;;;;;31.00;30.67;;;;;22.03;59.03;100152.25;6224073;22;45323;-81
2023/06/09 03:48:04;;;;;;;;;28.33;27.33;;;;;21.98;58.51;100136.19;6197114;22;45284;-81
2023/06/09 03:50:29;;;;;;;;;29.00;29.00;;;;;22.01;59.22;100140.59;6194787;22;47329;-82
2023/06/09 03:52:55;;;;;;;;;30.67;29.67;;;;;22.00;59.05;100136.13;6219019;22;45443;-81
2023/06/09 03:55:22;;;;;;;;;29.67;29.67;;;;;21.99;58.80;100139.78;6223683;22;45403;-81
2023/06/09 03:57:48;;;;;;;;;28.00;28.00;;;;;21.98;58.59;100135.31;6224173;22;45337;-82
2023/06/09 04:00:15;;;;;;;;;28.67;28.67;;;;;21.99;58.89;100142.50;6224057;22;45431;-82
2023/06/09 04:02:40;;;;;;;;;32.00;30.33;;;;;21.94;59.75;100148.09;6196021;22;45358;-82
2023/06/09 04:05:06;;;;;;;;;30.67;28.00;;;;;21.91;58.99;100140.09;6223479;22;45319;-82
2023/06/09 04:07:32;;;;;;;;;30.33;30.33;;;;;21.85;59.30;100143.06;6222817;22;45370;-82
2023/06/09 04:09:57;;;;;;;;;29.67;27.67;;;;;21.95;59.63;100144.44;6222309;22;47102;-81
2023/06/09 04:12:23;;;;;;;;;32.67;31.00;;;;;21.93;59.37;100140.03;6223563;22;44700;-80
2023/06/09 04:14:50;;;;;;;;;29.67;29.67;;;;;22.09;58.88;100130.31;6222585;22;45352;-79
2023/06/09 04:17:15;;;;;;;;;31.33;30.00;;;;;22.05;58.26;100123.28;6195144;22;44723;-81
2023/06/09 04:19:41;;;;;;;;;34.33;31.00;;;;;22.14;58.53;100133.72;6195428;22;45352;-80
2023/06/09 04:22:07;;;;;;;;;32.00;30.33;;;;;22.23;58.52;100132.41;6194965;22;45359;-80
2023/06/09 04:24:34;;;;;;;;;29.33;29.33;;;;;22.33;58.08;100132.94;6196864;22;45449;-80
2023/06/09 04:27:02;;;;;;;;;31.33;31.00;;;;;22.38;57.94;100133.63;6221561;22;45416;-80
2023/06/09 04:29:28;;;;;;;;;33.33;30.67;;;;;22.42;58.32;100140.66;6197015;22;46738;-80
2023/06/09 04:31:58;;;;;;;;;30.33;29.67;;;;;22.47;57.78;100141.31;6221765;22;45577;-81
2023/06/09 04:34:26;;;;;;;;;28.33;26.67;;;;;22.59;57.68;100149.88;6196178;22;45480;-82
2023/06/09 04:37:01;;;;;;;;;32.00;30.67;;;;;22.64;57.51;100154.09;6222091;22;45283;-81
2023/06/09 04:39:28;;;;;;;;;28.00;28.00;;;;;22.66;57.85;100143.19;6196027;22;46865;-81
2023/06/09 04:41:54;;;;;;;;;27.67;27.67;;;;;22.46;57.98;100150.41;6222729;22;45300;-81
2023/06/09 04:44:20;;;;;;;;;26.67;26.67;;;;;22.57;57.69;100147.22;6194935;22;45475;-81
2023/06/09 04:46:46;;;;;;;;;32.00;28.33;;;;;22.65;57.49;100149.59;6196064;22;45377;-81
2023/06/09 04:49:12;;;;;;;;;28.00;28.00;;;;;22.68;57.26;100160.28;6194892;22;46873;-81
2023/06/09 04:51:47;;;;;;;;;32.00;30.67;;;;;22.73;57.43;100152.81;6221377;22;45417;-80
2023/06/09 04:54:16;;;;;;;;;31.00;29.33;;;;;22.57;57.97;100161.63;6223360;22;45266;-81
2023/06/09 04:56:44;;;;;;;;;32.67;31.00;;;;;22.59;57.26;100163.41;6221240;22;44915;-81
2023/06/09 04:59:13;;;;;;;;;29.33;28.33;;;;;22.59;57.87;100158.00;6221852;22;46673;-81
2023/06/09 05:01:46;;;;;;;;;29.67;29.67;;;;;22.53;57.52;100156.44;6196972;22;45308;-81
2023/06/09 05:04:12;;;;;;;;;29.00;28.67;;;;;22.64;57.78;100158.66;6196229;22;45402;-81
2023/06/09 05:06:40;;;;;;;;;28.00;24.33;;;;;22.74;57.50;100160.91;6222180;22;45365;-80
2023/06/09 05:09:07;;;;;;;;;32.00;31.00;;;;;22.75;57.78;100167.19;6223812;22;45260;-80
2023/06/09 05:11:34;;;;;;;;;30.33;29.33;;;;;22.76;57.08;100155.38;6223882;22;45299;-80
2023/06/09 05:13:59;;;;;;;;;29.33;29.33;;;;;22.84;56.75;100166.75;6222655;22;45395;-80
2023/06/09 05:16:27;;;;;;;;;31.67;30.33;;;;;22.90;57.03;100165.59;6221078;22;45375;-81
2023/06/09 05:18:52;;;;;;;;;30.00;27.00;;;;;22.94;56.64;100161.78;6195847;22;45341;-80
2023/06/09 05:21:21;;;;;;;;;27.00;27.00;;;;;23.04;56.73;100155.00;6222330;22;45383;-80
2023/06/09 05:23:47;;;;;;;;;30.00;29.33;;;;;23.36;56.06;100158.03;6222095;22;45400;-80
2023/06/09 05:26:12;;;;;;;;;29.33;29.33;;;;;23.31;55.72;100166.41;6195865;22;45363;-80
2023/06/09 05:28:38;;;;;;;;;29.50;28.50;;;;;23.56;55.59;100157.06;6222596;22;45890;-81
2023/06/09 05:31:06;;;;;;;;;28.00;27.33;;;;;23.79;54.99;100163.22;6224425;22;45524;-81
2023/06/09 05:33:32;;;;;;;;;27.00;27.00;;;;;23.73;54.63;100145.34;6221898;22;45405;-81
2023/06/09 05:35:58;;;;;;;;;30.67;29.67;;;;;23.64;55.03;100156.69;6223247;22;45359;-80
2023/06/09 05:38:25;;;;;;;;;28.67;28.67;;;;;23.85;54.29;100162.91;6196147;22;47928;-81
2023/06/09 05:40:51;;;;;;;;;31.33;30.00;;;;;23.84;54.33;100158.44;6249516;22;45382;-81
2023/06/09 05:43:18;;;;;;;;;30.67;29.67;;;;;23.93;54.95;100171.56;6254793;22;45304;-80
2023/06/09 05:45:43;;;;;;;;;30.67;29.33;;;;;23.92;54.65;100158.94;6236715;22;44951;-81
2023/06/09 05:48:08;;;;;;;;;29.67;27.67;;;;;24.05;54.09;100173.63;6254860;22;45544;-82
2023/06/09 05:50:34;;;;;;;;;31.67;29.67;;;;;24.07;53.80;100171.72;6278443;22;44823;-80
2023/06/09 05:53:00;;;;;;;;;29.33;29.33;;;;;24.10;53.89;100166.16;6254865;22;45326;-81
2023/06/09 05:55:25;;;;;;;;;30.00;30.00;;;;;24.16;53.89;100168.56;6254024;22;45517;-80
2023/06/09 05:57:51;;;;;;;;;32.00;30.67;;;;;24.27;53.73;100170.69;6254010;22;45627;-80
2023/06/09 06:00:17;;;;;;;;;30.67;29.00;;;;;24.31;53.31;100168.72;6253121;22;45496;-81
2023/06/09 06:02:44;;;;;;;;;28.33;25.33;;;;;24.39;53.07;100171.03;6277104;22;45052;-81
2023/06/09 06:05:12;;;;;;;;;28.33;27.33;;;;;24.51;52.85;100179.44;6255082;22;45287;-80
2023/06/09 06:07:41;;;;;;;;;30.67;30.33;;;;;24.43;52.63;100168.06;6254979;22;45359;-81
2023/06/09 06:10:09;;;;;;;;;31.00;30.00;;;;;24.57;52.52;100174.66;6252329;22;45272;-81
2023/06/09 06:12:35;;;;;;;;;32.67;30.33;;;;;24.54;52.43;100173.84;6251300;22;45359;-81
2023/06/09 06:15:04;;;;;;;;;24.00;22.67;;;;;24.55;52.42;100161.13;6254875;22;45345;-81
2023/06/09 06:17:29;;;;;;;;;27.33;26.67;;;;;24.62;52.28;100170.75;6252733;22;47028;-82
2023/06/09 06:19:56;;;;;;;;;32.67;30.00;;;;;24.80;52.25;100170.69;6279259;22;45402;-81
2023/06/09 06:22:27;;;;;;;;;32.33;30.00;;;;;24.96;51.63;100166.16;6279133;22;45654;-81
2023/06/09 06:24:52;;;;;;;;;33.00;30.33;;;;;25.05;51.33;100172.97;6252334;22;45371;-81
2023/06/09 06:27:18;;;;;;;;;31.00;30.00;;;;;25.10;51.17;100160.84;6251498;22;46508;-81
2023/06/09 06:29:43;;;;;;;;;31.00;30.00;;;;;25.12;50.84;100167.06;6228812;22;45343;-81
2023/06/09 06:32:09;;;;;;;;;34.33;32.00;;;;;25.15;50.68;100166.91;6272050;22;45322;-81
2023/06/09 06:34:35;;;;;;;;;25.00;24.33;;;;;25.11;50.62;100161.75;6254484;22;45396;-80
2023/06/09 06:37:03;;;;;;;;;28.33;26.00;;;;;25.21;50.98;100168.47;6272753;22;45176;-81
2023/06/09 06:40:29;;;;;;;;;29.00;26.33;;;;;25.44;49.79;100156.25;6253199;22;45405;-81
2023/06/09 06:42:55;;;;;;;;;29.33;27.00;;;;;25.41;49.70;100166.44;6250848;22;45314;-81
2023/06/09 06:45:21;;;;;;;;;28.33;28.33;;;;;25.47;49.58;100163.38;6252923;22;45329;-81
2023/06/09 06:47:49;;;;;;;;;28.00;28.00;;;;;25.46;49.67;100167.94;6252724;22;48014;-81
2023/06/09 06:50:22;;;;;;;;;33.33;31.00;;;;;25.70;49.65;100167.50;6252817;22;45426;-81
2023/06/09 06:52:50;;;;;;;;;29.67;29.67;;;;;25.85;49.54;100160.25;6255256;22;45445;-81
2023/06/09 06:55:17;;;;;;;;;26.00;24.67;;;;;26.04;48.89;100162.84;6254578;22;45394;-80
2023/06/09 06:57:47;;;;;;;;;27.67;27.00;;;;;26.19;48.92;100163.75;6228363;22;47778;-81
2023/06/09 07:00:16;;;;;;;;;31.00;29.67;;;;;26.24;48.11;100161.59;6255416;22;45444;-81
2023/06/09 07:02:46;;;;;;;;;32.00;30.00;;;;;26.23;47.77;100171.66;6256461;22;45380;-82
2023/06/09 07:05:12;;;;;;;;;30.33;29.33;;;;;26.15;48.41;100165.78;6230123;22;45360;-81
2023/06/09 07:07:40;;;;;;;;;32.00;29.67;;;;;26.18;47.94;100175.59;6229352;22;47587;-82
2023/06/09 07:10:09;;;;;;;;;30.00;29.00;;;;;26.12;48.06;100164.13;6228820;22;45340;-81
2023/06/09 07:12:36;;;;;;;;;28.67;28.33;;;;;26.10;47.80;100170.66;6255389;22;45428;-81
2023/06/09 07:15:03;;;;;;;;;31.33;29.00;;;;;26.04;47.82;100165.56;6230710;22;45269;-81
2023/06/09 07:17:28;;;;;;;;;29.33;28.33;;;;;26.05;48.06;100173.63;6227901;22;46851;-82
2023/06/09 07:20:04;;;;;;;;;27.67;27.67;;;;;26.20;47.38;100176.38;6255124;22;45425;-80
2023/06/09 07:22:33;;;;;;;;;31.00;30.33;;;;;26.15;48.18;100179.41;6229757;22;45423;-82
2023/06/09 07:24:59;;;;;;;;;29.00;27.67;;;;;26.22;47.77;100179.91;6228806;22;45335;-81
2023/06/09 07:27:26;;;;;;;;;29.33;27.33;;;;;26.35;47.89;100178.22;6255917;22;46293;-81
2023/06/09 07:29:54;;;;;;;;;30.67;29.00;;;;;26.54;47.72;100187.03;6203571;22;45424;-81
2023/06/09 07:32:26;;;;;;;;;27.33;27.33;;;;;26.61;47.13;100159.41;6258500;22;45756;-81
2023/06/09 07:34:57;;;;;;;;;29.33;29.33;;;;;26.93;46.86;100187.41;6259108;22;45445;-81
2023/06/09 07:37:24;;;;;;;;;30.33;28.67;;;;;26.91;46.44;100201.13;6258174;22;45619;-81
2023/06/09 07:39:49;;;;;;;;;31.00;29.00;;;;;26.92;46.11;100194.72;6247666;22;45425;-81
2023/06/09 07:42:15;;;;;;;;;28.33;28.33;;;;;26.97;45.53;100199.00;6227859;22;45619;-81
2023/06/09 07:44:40;;;;;;;;;35.00;31.67;;;;;27.01;45.52;100206.91;6228378;22;45351;-80
2023/06/09 07:47:06;;;;;;;;;33.33;30.00;;;;;26.99;45.95;100194.34;6254268;22;45291;-80
2023/06/09 07:49:37;;;;;;;;;28.33;28.00;;;;;26.94;46.14;100175.50;6253622;22;45337;-81
2023/06/09 07:52:13;;;;;;;;;22.67;22.33;;;;;27.02;45.75;100192.28;6252539;22;45568;-80
2023/06/09 07:54:38;;;;;;;;;28.00;25.00;;;;;27.02;45.83;100164.09;6229106;22;45609;-81
2023/06/09 07:57:05;;;;;;;;;29.33;28.00;;;;;27.30;45.01;100196.88;6256236;22;45872;-81
2023/06/09 07:59:37;;;;;;;;;29.00;28.00;;;;;27.45;45.54;100183.19;6228283;22;45349;-81
2023/06/09 08:02:03;;;;;;;;;34.50;29.00;;;;;27.40;44.57;100177.19;6229457;22;45465;-82
2023/06/09 08:04:29;;;;;;;;;30.33;30.00;;;;;27.41;44.67;100184.38;6257218;22;45700;-81
2023/06/09 08:06:58;;;;;;;;;29.00;28.67;;;;;27.49;44.18;100182.03;6253911;22;45855;-79
2023/06/09 08:09:27;;;;;;;;;32.67;30.00;;;;;27.53;43.89;100179.00;6226990;22;45390;-81
2023/06/09 08:15:33;;;;;;;;;28.00;28.00;;;;;27.65;43.73;100169.13;6256165;22;45425;-82
2023/06/09 08:17:58;;;;;;;;;30.33;28.67;;;;;27.78;44.65;100171.06;6255978;22;47947;-81
2023/06/09 08:20:24;;;;;;;;;25.33;24.33;;;;;27.78;43.97;100163.72;6253302;22;45343;-80
2023/06/09 08:22:49;;;;;;;;;26.33;25.33;;;;;27.95;44.34;100164.47;6256912;22;44962;-82
2023/06/09 08:25:17;;;;;;;;;26.67;23.67;;;;;28.10;43.48;100153.38;6257749;22;45504;-80
2023/06/09 08:38:10;;;;;;;;;28.00;28.00;;;;;28.50;42.23;100160.69;6197604;22;45352;-83
2023/06/09 08:40:48;;;;;;;;;29.33;28.67;;;;;28.34;41.99;100128.06;6168684;23;44930;-82
2023/06/09 08:43:17;;;;;;;;;27.00;26.67;;;;;28.39;41.84;100145.00;6198968;22;45423;-81
2023/06/09 08:45:49;;;;;;;;;24.67;24.33;;;;;28.39;42.83;100114.91;6198858;23;45450;-82
2023/06/09 08:54:48;;;;;;;;;27.67;25.33;;;;;28.70;41.17;100141.03;6197857;23;45399;-82
2023/06/09 08:57:13;;;;;;;;;27.33;25.00;;;;;28.57;41.12;100144.72;6195912;23;45356;-81
2023/06/09 08:59:40;;;;;;;;;22.67;21.67;;;;;28.65;41.49;100143.19;6196776;23;46093;-80
2023/06/09 09:02:10;;;;;;;;;24.00;23.33;;;;;28.81;41.53;100142.97;6169441;23;45390;-82
2023/06/09 09:04:38;;;;;;;;;21.67;21.67;;;;;28.84;41.33;100148.22;6195563;23;45486;-82
2023/06/09 09:07:08;;;;;;;;;26.00;25.00;;;;;28.93;41.59;100142.09;6195817;23;45339;-82
2023/06/09 09:09:34;;;;;;;;;25.00;23.67;;;;;29.01;41.35;100144.28;6167641;23;47190;-81
2023/06/09 09:12:04;;;;;;;;;23.33;22.33;;;;;29.11;40.97;100141.78;6194067;23;45357;-79
2023/06/09 09:14:33;;;;;;;;;25.67;23.67;;;;;29.21;40.91;100151.09;6193963;23;45430;-80
2023/06/09 09:17:28;;;;;;;;;24.33;23.67;;;;;29.18;40.36;100148.56;6194938;23;45289;-82
2023/06/09 09:23:47;;;;;;;;;21.67;21.67;;;;;29.06;40.00;100142.06;6045602;23;45393;-84
2023/06/09 09:36:53;;;;;;;;;24.00;21.33;;;;;29.14;40.50;100099.59;6027193;23;45623;-84
2023/06/09 09:40:09;;;;;;;;;24.00;21.67;;;;;29.45;39.68;100128.31;6050644;23;45477;-84
2023/06/09 09:42:36;;;;;;;;;23.33;23.33;;;;;29.43;39.06;100127.56;6074120;23;45541;-83
2023/06/09 09:46:23;;;;;;;;;22.00;22.00;;;;;29.41;39.74;100124.97;6072155;23;46286;-84
2023/06/09 09:48:42;;;;;;;;;23.67;23.67;;;;;29.00;39.56;100076.81;6065676;23;45513;-85
2023/06/09 09:57:29;;;;;;;;;23.00;22.33;;;;;29.29;39.67;100063.75;5986486;23;45569;-83
2023/06/09 10:00:55;;;;;;;;;25.00;25.00;;;;;29.75;39.91;100110.59;5970314;23;45458;-84
2023/06/09 10:03:35;;;;;;;;;24.67;24.00;;;;;29.69;38.83;100057.09;6018127;23;45497;-83
2023/06/09 10:06:39;;;;;;;;;23.67;21.67;;;;;29.73;38.99;100063.25;6021148;23;44825;-83
2023/06/09 10:24:05;;;;;;;;;26.00;24.00;;;;;30.04;36.65;100095.53;5933857;24;44996;-84
2023/06/09 10:26:55;;;;;;;;;;;;;;;;;;;;;
2023/06/09 10:32:52;;;;;;;;;21.33;21.33;;;;;30.01;36.47;100073.81;6165586;23;45617;-83
2023/06/09 10:56:45;;;;;;;;;21.33;21.33;;;;;31.17;34.48;100101.22;6089612;23;46030;-83
2023/06/09 10:59:50;;;;;;;;;22.33;22.00;;;;;31.19;34.44;100092.88;6134957;23;45637;-84
2023/06/09 11:03:43;;;;;;;;;;;;;;;;;;;;;
2023/06/09 11:14:00;;;;;;;;;19.33;19.33;;;;;31.59;33.68;100087.69;6018313;23;46141;-83
2023/06/09 11:21:08;;;;;;;;;21.33;20.33;;;;;31.78;32.82;100083.38;5986145;23;45523;-84
2023/06/09 11:24:17;;;;;;;;;21.00;21.00;;;;;31.88;33.23;100100.81;5932085;24;45275;-81
2023/06/09 11:27:02;;;;;;;;;;;;;;;;;;;;;
2023/06/09 11:30:24;;;;;;;;;21.33;21.33;;;;;32.06;33.04;100082.75;5927885;23;45368;-85
2023/06/09 11:33:02;;;;;;;;;19.67;19.67;;;;;32.05;33.32;100083.75;5910882;24;45318;-87
2023/06/09 11:35:40;;;;;;;;;17.00;17.00;;;;;32.09;33.28;100098.97;5886724;24;45429;-85
2023/06/09 11:38:56;;;;;;;;;18.50;18.50;;;;;32.00;31.50;100109.94;5935448;24;45377;-86
2023/06/09 11:41:40;;;;;;;;;17.33;16.00;;;;;31.68;31.31;100061.28;5934368;24;45785;-85
2023/06/09 11:44:05;;;;;;;;;18.33;16.67;;;;;31.60;31.44;100061.94;5935788;24;44708;-85
2023/06/09 11:46:39;;;;;;;;;19.67;19.67;;;;;31.67;31.98;100049.41;5933816;24;45421;-86
2023/06/09 11:49:08;;;;;;;;;17.00;17.00;;;;;31.83;32.04;100048.06;5911333;24;45539;-86
2023/06/09 11:52:22;;;;;;;;;22.67;22.67;;;;;32.13;31.88;100077.59;5910096;24;47658;-86
2023/06/09 11:54:49;;;;;;;;;20.33;20.33;;;;;31.95;31.82;100052.50;5878980;24;45393;-85
2023/06/09 12:00:49;;;;;;;;;20.00;20.00;;;;;32.11;32.30;100062.22;6073514;23;45634;-85
2023/06/09 12:03:21;;;;;;;;;21.33;21.33;;;;;32.12;31.55;100036.44;6051883;23;47246;-84
2023/06/09 12:13:35;;;;;;;;;18.00;16.00;;;;;32.61;30.15;100070.69;6078097;23;45223;-85
2023/06/09 12:23:17;;;;;;;;;;;;;;;;;;;;;
2023/06/09 12:29:14;;;;;;;;;16.00;16.00;;;;;32.45;28.92;100063.75;6217384;22;46676;-86
2023/06/09 12:36:25;;;;;;;;;17.67;17.67;;;;;32.51;29.39;100053.22;6048999;23;44824;-86
2023/06/09 12:43:09;;;;;;;;;;;;;;;;;;;;;
2023/06/09 12:45:46;;;;;;;;;17.67;16.00;;;;;32.37;29.75;100051.69;5958074;23;73156;-84
2023/06/09 12:48:11;;;;;;;;;17.00;17.00;;;;;32.29;29.84;100058.72;5935449;23;45736;-83
2023/06/09 12:51:45;;;;;;;;;17.67;17.67;;;;;32.28;30.09;100051.50;5935304;23;45399;-83
2023/06/09 12:57:53;;;;;;;;;20.00;20.00;;;;;32.05;30.24;100030.63;5931717;24;45400;-85
2023/06/09 13:00:49;;;;;;;;;15.67;15.67;;;;;32.15;30.05;100042.56;5931480;24;45453;-84
2023/06/09 13:03:36;;;;;;;;;19.00;19.00;;;;;31.94;30.17;100026.03;5951128;23;44846;-83
2023/06/09 13:06:15;;;;;;;;;19.33;19.33;;;;;32.04;30.25;100028.91;5959320;23;45392;-83
2023/06/09 13:15:48;;;;;;;;;17.67;17.33;;;;;32.16;28.22;100018.66;5991375;23;44931;-85
2023/06/09 13:18:20;;;;;;;;;19.00;19.00;;;;;32.17;28.28;100028.69;5966793;23;45615;-84
2023/06/09 13:34:10;;;;;;;;;18.67;15.00;;;;;32.29;28.27;100027.59;6239841;22;45519;-85
2023/06/09 13:36:40;;;;;;;;;18.00;18.00;;;;;32.27;28.95;100013.09;6258640;22;45024;-84
2023/06/09 13:39:06;;;;;;;;;17.00;17.00;;;;;32.33;28.42;99996.03;6282455;22;44865;-85
2023/06/09 13:41:34;;;;;;;;;20.33;17.67;;;;;32.62;28.31;99995.34;6260031;22;45261;-84
2023/06/09 13:44:20;;;;;;;;;17.00;17.00;;;;;33.86;28.58;100014.16;6257593;22;45296;-85
2023/06/09 15:06:38;;;;;;;;;14.67;14.33;;;;;42.73;16.92;99957.22;6157843;23;45355;-84
2023/06/09 15:29:54;;;;;;;;;13.00;13.00;;;;;47.52;15.45;99941.06;6192531;23;45387;-84
2023/06/09 15:32:20;;;;;;;;;12.00;12.00;;;;;47.73;14.11;99931.22;6168674;23;45435;-84
2023/06/09 15:34:46;;;;;;;;;12.67;12.67;;;;;47.91;14.48;99925.50;6194081;23;45434;-84
2023/06/09 15:37:14;;;;;;;;;14.00;13.33;;;;;48.77;13.75;99930.59;6192853;23;45457;-84
2023/06/09 15:39:43;;;;;;;;;13.00;13.00;;;;;48.85;14.25;99933.03;6192785;23;45508;-84
2023/06/09 15:42:13;;;;;;;;;12.00;12.00;;;;;49.01;13.86;99937.91;6187562;22;45633;-84
2023/06/09 15:44:41;;;;;;;;;15.00;14.00;;;;;48.92;13.45;99928.06;6286285;22;45743;-84
2023/06/09 15:47:10;;;;;;;;;16.67;14.33;;;;;48.44;14.45;99906.72;6280713;22;45268;-83
2023/06/09 15:49:36;;;;;;;;;15.33;15.33;;;;;48.91;14.70;99946.13;6268991;22;45384;-84
2023/06/09 15:52:02;;;;;;;;;15.00;15.00;;;;;48.65;13.85;99934.31;6280211;22;45469;-83
2023/06/09 16:05:27;;;;;;;;;12.00;10.33;;;;;48.37;14.24;99914.47;6223621;22;45276;-83